Cadete FAP Guillermo Del Castillo Paredes Airport
SPST : now visible

Airfield :











YOU CAN JOIN US ON...

 
LOGIN :

Register | Disclaimer

   EN    FR    IT 

 









Legend :    VFR   Marginal VFR   IFR   Intensive IFR   Very Intensive IFR
Visi :
Ceiling :
>= 8 km
>= 3000ft
5 to 8 km
1000 to 3000 ft
1500m to 5 km
500 to 1000 ft
800 to 1500m
200 to 500 ft
< 800m
< 200 ft
Symbols :   Thunderstorms  Fog  Heavy snow  Heavy precipitations  Wind > 20 kt






- Airport Elevation : 869 ft
- IATA code : TPP


SPST - Cadete FAP Guillermo Del Castillo Paredes

CURRENT METAR :
  • 210300Z 00000KT 9999 FEW025 26/23 Q1008 RMK BIRD HAZARD RWY 17/35 PP000

EXPIRED METARs :
  • 210200Z 26003KT 9999 FEW030 28/23 Q1007 RMK BIRD HAZARD RWY 17/35 PP000
  • 210100Z 26004KT 9999 FEW030 30/22 Q1006 RMK BIRD HAZARD RWY 17/35 PP000

TAF SPST
Valid from the 21 at 00:00 until the 22 at 00:00 UTC


202310Z 2100/2124 00000KT 9999 SCT025 TX35/2120Z TN22/2111Z
TEMPO 2112/2114 3000 BR SCT007
FM211600 VRB02KT SCT020



MET'MAP, your aeronautical weather chart ! - Copyright ORBIFLY December 2007 - Disclaimer

ORBIFLY MET'MAP TEAM :

Programming & Development : Alexandra Zaïnal
Concept & original design : Baudouin d'Aumeries
Assistance for programming : Marc-Olivier Méhu
Technical & hardware support : Manuel Goepfert

Contact : metmap@orbifly.com




SOURCES & CREDITS :

   NOAA       Earth
Advisory